createdAt,value
2022-08-22T00:00:52.786Z,15.09
2022-08-22T00:01:52.824Z,15.06
2022-08-22T00:02:48.505Z,16.89
2022-08-22T00:02:54.492Z,15.62
2022-08-22T00:03:09.033Z,15.57
2022-08-22T00:03:15.374Z,15.03
2022-08-22T00:03:53.771Z,15.03
2022-08-22T00:04:55.759Z,15.03
2022-08-22T00:05:52.750Z,15.02
2022-08-22T00:06:52.729Z,15.00
2022-08-22T00:07:52.808Z,14.99
2022-08-22T00:08:52.788Z,14.97
2022-08-22T00:09:52.700Z,14.97
2022-08-22T00:10:52.689Z,14.94
2022-08-22T00:11:52.682Z,14.91
2022-08-22T00:12:52.714Z,14.91
2022-08-22T00:13:56.677Z,14.86
2022-08-22T00:14:52.643Z,14.84
2022-08-22T00:15:52.659Z,14.84
2022-08-22T00:16:53.453Z,14.82
2022-08-22T00:17:52.663Z,14.82
2022-08-22T00:18:52.602Z,14.78
2022-08-22T00:19:55.601Z,14.73
2022-08-22T00:20:52.623Z,14.70
2022-08-22T00:21:52.611Z,14.69
2022-08-22T00:22:52.574Z,14.68
2022-08-22T00:23:52.551Z,14.68
2022-08-22T00:24:52.544Z,14.68
2022-08-22T00:25:54.193Z,14.65
2022-08-22T00:26:52.552Z,14.65
2022-08-22T00:27:52.512Z,14.65
2022-08-22T00:28:52.538Z,14.65
2022-08-22T00:29:52.508Z,14.66
2022-08-22T00:30:52.485Z,14.68
2022-08-22T00:31:52.500Z,14.70
2022-08-22T00:32:52.465Z,14.70
2022-08-22T00:33:52.454Z,14.73
2022-08-22T00:34:55.435Z,14.73
2022-08-22T00:35:52.446Z,14.77
2022-08-22T00:36:52.430Z,14.78
2022-08-22T00:37:52.455Z,14.78
2022-08-22T00:38:52.396Z,14.79
2022-08-22T00:39:52.461Z,14.79
2022-08-22T00:40:52.371Z,14.78
2022-08-22T01:42:51.204Z,14.69
2022-08-22T01:45:26.901Z,14.63
2022-08-22T01:46:26.892Z,14.59
2022-08-22T01:47:26.871Z,14.59
2022-08-22T01:51:54.857Z,14.55
2022-08-22T01:58:28.538Z,14.60
2022-08-22T01:59:34.044Z,14.59
2022-08-22T02:00:34.756Z,14.60
2022-08-22T02:01:28.569Z,14.62
2022-08-22T02:02:28.452Z,14.60
2022-08-22T02:03:28.452Z,14.62
2022-08-22T02:04:28.430Z,14.63
2022-08-22T02:05:28.422Z,14.63
2022-08-22T02:06:28.412Z,14.63
2022-08-22T02:09:53.345Z,14.66
2022-08-22T02:13:18.187Z,14.62
2022-08-22T02:14:18.147Z,14.60
2022-08-22T02:17:58.850Z,14.55
2022-08-22T02:18:58.758Z,14.54
2022-08-22T02:19:58.762Z,14.53
2022-08-22T02:44:23.342Z,14.45
2022-08-22T02:45:23.330Z,14.43
2022-08-22T02:46:23.311Z,14.43
2022-08-22T02:47:23.293Z,14.43
2022-08-22T02:48:23.280Z,14.41
2022-08-22T02:49:23.259Z,14.40
2022-08-22T02:50:23.285Z,14.33
2022-08-22T02:51:23.271Z,14.32
2022-08-22T02:52:23.236Z,14.30
2022-08-22T02:53:23.221Z,14.29
2022-08-22T02:54:23.223Z,14.32
2022-08-22T02:55:23.202Z,14.30
2022-08-22T02:56:23.218Z,14.30
2022-08-22T02:57:26.289Z,14.30
2022-08-22T02:58:23.185Z,14.29
2022-08-22T02:59:23.165Z,14.28
2022-08-22T03:00:31.107Z,14.26
2022-08-22T03:01:23.157Z,14.23
2022-08-22T03:02:23.175Z,14.20
2022-08-22T03:03:23.114Z,14.17
2022-08-22T03:07:19.476Z,14.15
2022-08-22T03:08:26.505Z,14.14
2022-08-22T03:09:19.458Z,14.12
2022-08-22T03:11:57.125Z,14.14
2022-08-22T03:13:04.111Z,14.11
2022-08-22T03:14:04.204Z,14.08
2022-08-22T03:16:50.489Z,14.03
2022-08-22T03:17:50.466Z,13.97
2022-08-22T03:18:50.466Z,13.95
2022-08-22T03:19:50.506Z,13.92
2022-08-22T03:33:13.641Z,13.79
2022-08-22T03:34:13.612Z,13.77
2022-08-22T03:35:13.595Z,13.74
2022-08-22T03:36:13.583Z,13.74
2022-08-22T03:37:13.594Z,13.72
2022-08-22T03:38:13.562Z,13.72
2022-08-22T03:39:17.083Z,13.70
2022-08-22T03:40:13.598Z,13.67
2022-08-22T03:41:13.533Z,13.65
2022-08-22T03:42:13.544Z,13.63
2022-08-22T03:43:13.530Z,13.63
2022-08-22T03:44:13.509Z,13.59
2022-08-22T03:45:13.494Z,13.56
2022-08-22T03:46:17.848Z,13.54
2022-08-22T03:47:13.497Z,13.53
2022-08-22T03:48:13.485Z,13.53
2022-08-22T03:49:13.485Z,13.52
2022-08-22T03:50:13.436Z,13.53
2022-08-22T03:51:13.424Z,13.52
2022-08-22T03:52:13.420Z,13.53
2022-08-22T03:53:15.452Z,13.49
2022-08-22T03:54:13.394Z,13.49
2022-08-22T03:55:13.391Z,13.44
2022-08-22T03:56:13.389Z,13.42
2022-08-22T03:57:13.368Z,13.39
2022-08-22T03:58:16.325Z,13.38
2022-08-22T03:59:13.302Z,13.35
2022-08-22T04:00:13.281Z,13.33
2022-08-22T04:01:16.336Z,13.30
2022-08-22T04:02:42.134Z,13.33
2022-08-22T04:03:14.269Z,13.33
2022-08-22T04:04:13.237Z,13.31
2022-08-22T04:05:13.232Z,13.30
2022-08-22T04:06:13.210Z,13.28
2022-08-22T04:07:28.033Z,13.30
2022-08-22T04:08:14.192Z,13.27
2022-08-22T04:09:13.190Z,13.27
2022-08-22T04:10:13.181Z,13.27
2022-08-22T04:11:13.168Z,13.23
2022-08-22T04:12:13.160Z,13.22
2022-08-22T04:13:13.144Z,13.19
2022-08-22T04:14:13.144Z,13.19
2022-08-22T04:15:13.143Z,13.16
2022-08-22T04:16:16.102Z,13.15
2022-08-22T04:17:13.114Z,13.15
2022-08-22T04:18:13.083Z,13.12
2022-08-22T04:19:13.084Z,13.11
2022-08-22T04:20:13.102Z,13.11
2022-08-22T04:21:13.066Z,13.11
2022-08-22T04:22:13.054Z,13.12
2022-08-22T04:23:13.041Z,13.11
2022-08-22T04:24:13.027Z,13.11
2022-08-22T04:25:13.017Z,13.09
2022-08-22T04:26:13.021Z,13.05
2022-08-22T04:27:13.010Z,13.04
2022-08-22T04:28:12.986Z,13.03
2022-08-22T04:29:12.977Z,12.98
2022-08-22T04:30:12.969Z,12.98
2022-08-22T04:31:15.997Z,12.97
2022-08-22T04:32:14.763Z,12.98
2022-08-22T04:33:12.946Z,12.97
2022-08-22T04:34:12.937Z,12.95
2022-08-22T04:35:12.953Z,12.95
2022-08-22T04:36:12.897Z,12.94
2022-08-22T04:37:12.898Z,12.93
2022-08-22T04:38:12.971Z,12.93
2022-08-22T04:39:12.891Z,12.91
2022-08-22T04:40:12.903Z,12.91
2022-08-22T04:41:12.861Z,12.90
2022-08-22T04:42:31.633Z,12.87
2022-08-22T04:43:13.834Z,12.86
2022-08-22T04:44:13.425Z,12.85
2022-08-22T04:45:12.841Z,12.85
2022-08-22T04:46:15.800Z,12.85
2022-08-22T04:47:12.816Z,12.85
2022-08-22T04:48:12.771Z,12.85
2022-08-22T04:49:12.775Z,12.86
2022-08-22T04:50:12.761Z,12.86
2022-08-22T04:51:12.772Z,12.87
2022-08-22T04:52:12.734Z,12.86
2022-08-22T04:53:12.743Z,12.85
2022-08-22T04:54:12.715Z,12.87
2022-08-22T04:55:12.713Z,12.86
2022-08-22T04:56:12.740Z,12.86
2022-08-22T04:57:12.691Z,12.87
2022-08-22T04:58:12.671Z,12.87
2022-08-22T04:59:12.665Z,12.91
2022-08-22T05:00:12.655Z,12.91
2022-08-22T05:01:15.722Z,12.94
2022-08-22T05:02:12.657Z,12.94
2022-08-22T05:03:12.635Z,12.94
2022-08-22T05:04:12.614Z,12.95
2022-08-22T05:05:13.812Z,12.93
2022-08-22T05:06:12.587Z,12.93
2022-08-22T05:07:12.581Z,12.93
2022-08-22T05:08:12.589Z,12.94
2022-08-22T05:09:16.051Z,12.94
2022-08-22T05:10:12.718Z,12.94
2022-08-22T05:11:12.535Z,12.94
2022-08-22T05:12:12.527Z,12.91
2022-08-22T05:13:12.540Z,12.91
2022-08-22T05:14:12.509Z,12.90
2022-08-22T05:15:12.497Z,12.87
2022-08-22T05:16:15.495Z,12.87
2022-08-22T05:17:12.482Z,12.90
2022-08-22T05:18:12.484Z,12.90
2022-08-22T05:19:16.418Z,12.91
2022-08-22T05:20:13.440Z,12.93
2022-08-22T05:21:13.921Z,12.93
2022-08-22T05:22:12.440Z,12.91
2022-08-22T05:23:16.991Z,12.93
2022-08-22T05:24:12.391Z,12.91
2022-08-22T05:25:12.401Z,12.93
2022-08-22T05:26:12.375Z,12.91
2022-08-22T05:27:12.367Z,12.91
2022-08-22T05:28:12.390Z,12.91
2022-08-22T05:29:12.352Z,12.93
2022-08-22T05:30:12.332Z,12.95
2022-08-22T05:31:15.335Z,12.95
2022-08-22T05:32:12.323Z,12.97
2022-08-22T05:33:12.304Z,12.98
2022-08-22T05:34:12.356Z,13.00
2022-08-22T05:35:12.303Z,13.01
2022-08-22T05:36:12.345Z,13.05
2022-08-22T05:37:12.254Z,13.08
2022-08-22T05:38:12.256Z,13.09
2022-08-22T05:39:12.310Z,13.12
2022-08-22T05:40:12.341Z,13.11
2022-08-22T05:41:12.296Z,13.13
2022-08-22T05:42:12.247Z,13.15
2022-08-22T05:43:12.195Z,13.16
2022-08-22T05:44:12.228Z,13.16
2022-08-22T05:45:12.469Z,13.19
2022-08-22T05:46:15.191Z,13.20
2022-08-22T05:47:12.167Z,13.23
2022-08-22T05:48:12.138Z,13.23
2022-08-22T05:49:12.129Z,13.28
2022-08-22T05:50:12.128Z,13.28
2022-08-22T05:51:12.128Z,13.30
2022-08-22T05:52:12.100Z,13.33
2022-08-22T05:53:12.102Z,13.35
2022-08-22T05:54:12.071Z,13.38
2022-08-22T05:55:12.084Z,13.39
2022-08-22T05:56:12.096Z,13.39
2022-08-22T05:57:12.040Z,13.44
2022-08-22T05:58:12.030Z,13.46
2022-08-22T05:59:12.031Z,13.50
2022-08-22T06:00:12.010Z,13.53
2022-08-22T06:01:15.042Z,13.53
2022-08-22T06:02:12.040Z,13.54
2022-08-22T06:03:11.982Z,13.57
2022-08-22T06:04:11.970Z,13.60
2022-08-22T06:05:12.270Z,13.62
2022-08-22T06:06:11.949Z,13.63
2022-08-22T06:07:11.932Z,13.67
2022-08-22T06:08:11.922Z,13.72
2022-08-22T06:09:11.913Z,13.72
2022-08-22T06:10:11.946Z,13.74
2022-08-22T06:11:11.896Z,13.75
2022-08-22T06:12:21.892Z,13.79
2022-08-22T06:13:11.920Z,13.79
2022-08-22T06:14:13.002Z,13.85
2022-08-22T06:15:12.536Z,13.89
2022-08-22T06:16:14.846Z,13.93
2022-08-22T06:17:11.849Z,13.93
2022-08-22T06:18:11.810Z,13.97
2022-08-22T06:19:19.925Z,14.00
2022-08-22T06:20:11.796Z,14.04
2022-08-22T06:21:11.834Z,14.05
2022-08-22T06:22:11.802Z,14.07
2022-08-22T06:23:11.774Z,14.08
2022-08-22T06:24:11.758Z,14.11
2022-08-22T06:25:11.747Z,14.17
2022-08-22T06:26:21.122Z,14.30
2022-08-22T06:27:11.727Z,14.40
2022-08-22T06:28:11.718Z,14.48
2022-08-22T06:29:11.700Z,14.53
2022-08-22T06:30:11.692Z,14.58
2022-08-22T06:31:14.683Z,14.60
2022-08-22T06:32:11.720Z,14.63
2022-08-22T06:33:12.403Z,14.65
2022-08-22T06:34:11.640Z,14.68
2022-08-22T06:35:11.641Z,14.70
2022-08-22T06:36:11.628Z,14.70
2022-08-22T06:37:11.621Z,14.73
2022-08-22T06:38:11.603Z,14.78
2022-08-22T06:39:11.595Z,14.81
2022-08-22T06:40:11.651Z,14.82
2022-08-22T06:41:11.571Z,14.88
2022-08-22T06:42:15.977Z,14.96
2022-08-22T06:43:11.577Z,15.03
2022-08-22T06:44:11.545Z,15.10
2022-08-22T06:45:11.565Z,15.18
2022-08-22T06:46:14.524Z,15.21
2022-08-22T06:47:11.525Z,15.25
2022-08-22T06:48:11.509Z,15.28
2022-08-22T06:49:11.494Z,15.31
2022-08-22T06:50:13.617Z,15.35
2022-08-22T06:51:11.465Z,15.35
2022-08-22T06:52:11.461Z,15.39
2022-08-22T06:53:11.452Z,15.43
2022-08-22T06:54:11.442Z,15.46
2022-08-22T06:55:11.443Z,15.47
2022-08-22T06:56:11.436Z,15.47
2022-08-22T06:57:11.414Z,15.52
2022-08-22T06:58:11.394Z,15.61
2022-08-22T06:59:11.388Z,15.67
2022-08-22T07:00:11.398Z,15.83
2022-08-22T07:01:14.475Z,16.26
2022-08-22T07:02:11.369Z,16.72
2022-08-22T07:03:11.350Z,17.01
2022-08-22T07:04:11.330Z,17.34
2022-08-22T07:05:11.350Z,17.60
2022-08-22T07:06:11.311Z,17.85
2022-08-22T07:07:11.308Z,18.05
2022-08-22T07:08:11.292Z,18.22
2022-08-22T07:09:11.279Z,18.43
2022-08-22T07:10:11.294Z,18.62
2022-08-22T07:11:11.273Z,18.81
2022-08-22T07:12:11.278Z,18.96
2022-08-22T07:13:11.250Z,19.09
2022-08-22T07:14:11.235Z,19.22
2022-08-22T07:15:11.211Z,19.37
2022-08-22T07:16:14.206Z,19.56
2022-08-22T07:17:11.232Z,19.76
2022-08-22T07:18:11.185Z,19.89
2022-08-22T07:19:11.172Z,20.03
2022-08-22T07:20:11.167Z,20.14
2022-08-22T07:21:11.168Z,20.21
2022-08-22T07:22:11.251Z,20.31
2022-08-22T07:23:11.135Z,20.47
2022-08-22T07:24:11.126Z,20.58
2022-08-22T07:25:11.127Z,20.77
2022-08-22T07:26:11.105Z,20.92
2022-08-22T07:27:11.096Z,21.07
2022-08-22T07:28:16.136Z,21.29
2022-08-22T07:29:11.558Z,21.35
2022-08-22T07:30:11.073Z,21.46
2022-08-22T07:31:15.048Z,21.46
2022-08-22T07:32:11.087Z,21.61
2022-08-22T07:33:25.769Z,21.77
2022-08-22T07:34:12.010Z,21.77
2022-08-22T07:35:11.016Z,21.76
2022-08-22T07:36:10.989Z,21.82
2022-08-22T07:37:11.021Z,21.98
2022-08-22T07:38:10.981Z,22.17
2022-08-22T07:39:11.193Z,22.30
2022-08-22T07:40:11.048Z,22.45
2022-08-22T07:41:10.971Z,22.62
2022-08-22T07:42:10.942Z,22.80
2022-08-22T07:43:10.929Z,22.99
2022-08-22T07:44:10.921Z,23.09
2022-08-22T07:45:10.933Z,23.23
2022-08-22T07:46:13.903Z,23.37
2022-08-22T07:47:10.903Z,23.50
2022-08-22T07:48:10.885Z,23.56
2022-08-22T07:49:11.879Z,23.71
2022-08-22T07:51:48.737Z,23.73
2022-08-22T07:52:48.489Z,23.68
2022-08-22T07:53:48.487Z,23.61
2022-08-22T07:54:48.479Z,23.59
2022-08-22T07:55:49.655Z,23.69
2022-08-22T07:59:30.092Z,23.96
2022-08-22T08:00:30.052Z,23.96
2022-08-22T08:01:30.077Z,23.92
2022-08-22T08:04:07.682Z,24.16
2022-08-22T08:05:07.630Z,24.36
2022-08-22T08:06:14.632Z,24.26
2022-08-22T08:07:07.601Z,23.86
2022-08-22T08:10:01.035Z,23.80
2022-08-22T08:12:22.833Z,23.81
2022-08-22T08:13:29.827Z,23.98
2022-08-22T08:16:17.216Z,24.54
2022-08-22T08:19:42.036Z,24.99
2022-08-22T08:20:42.029Z,24.98
2022-08-22T08:23:03.897Z,24.70
2022-08-22T08:25:41.523Z,25.03
2022-08-22T08:31:49.536Z,24.73
2022-08-22T08:32:59.680Z,24.58
2022-08-22T08:33:56.647Z,24.32
2022-08-22T08:39:50.358Z,25.55
2022-08-22T08:40:57.292Z,25.85
2022-08-22T08:41:50.270Z,26.03
2022-08-22T08:42:57.281Z,26.09
2022-08-22T08:43:57.292Z,26.19
2022-08-22T08:44:57.382Z,26.31
2022-08-22T08:45:59.246Z,26.52
2022-08-22T08:48:12.114Z,26.85
2022-08-22T08:49:21.007Z,26.95
2022-08-22T08:50:19.634Z,26.81
2022-08-22T08:51:19.079Z,26.75
2022-08-22T08:52:12.323Z,26.62
2022-08-22T08:53:12.060Z,26.59
2022-08-22T08:54:12.059Z,26.62
2022-08-22T08:55:22.571Z,26.62
2022-08-22T08:56:12.073Z,26.60
2022-08-22T08:57:12.013Z,26.62
2022-08-22T08:58:12.000Z,26.59
2022-08-22T08:59:11.992Z,26.29
2022-08-22T09:00:12.287Z,26.36
2022-08-22T09:01:15.056Z,26.38
2022-08-22T09:02:13.750Z,26.48
2022-08-22T09:03:11.967Z,26.44
2022-08-22T09:04:14.951Z,26.37
2022-08-22T09:05:11.940Z,26.28
2022-08-22T09:06:11.910Z,26.18
2022-08-22T09:07:11.905Z,26.28
2022-08-22T09:08:12.003Z,26.44
2022-08-22T09:09:11.908Z,26.52
2022-08-22T09:10:11.867Z,26.38
2022-08-22T09:11:12.096Z,26.52
2022-08-22T09:12:11.849Z,26.66
2022-08-22T09:13:12.974Z,26.75
2022-08-22T09:14:11.846Z,26.51
2022-08-22T09:15:14.226Z,26.48
2022-08-22T09:16:14.831Z,26.58
2022-08-22T09:17:11.817Z,26.62
2022-08-22T09:18:11.791Z,26.74
2022-08-22T09:19:11.779Z,26.93
2022-08-22T09:20:17.539Z,27.08
2022-08-22T09:21:11.831Z,27.11
2022-08-22T09:22:14.576Z,27.15
2022-08-22T09:23:11.742Z,27.30
2022-08-22T09:24:11.755Z,27.40
2022-08-22T09:25:11.731Z,27.42
2022-08-22T09:26:11.723Z,27.12
2022-08-22T09:28:11.680Z,27.21
2022-08-22T09:29:11.665Z,27.18
2022-08-22T09:30:11.938Z,27.20
2022-08-22T09:31:16.928Z,27.25
2022-08-22T09:32:12.973Z,27.35
2022-08-22T09:33:11.627Z,27.47
2022-08-22T09:34:11.611Z,27.49
2022-08-22T09:35:11.596Z,27.58
2022-08-22T09:36:12.392Z,27.45
2022-08-22T09:38:11.597Z,27.44
2022-08-22T09:39:11.571Z,27.47
2022-08-22T09:41:11.530Z,27.55
2022-08-22T09:43:11.528Z,27.25
2022-08-22T09:44:12.088Z,27.26
2022-08-22T09:45:11.496Z,27.20
2022-08-22T09:46:14.488Z,27.15
2022-08-22T09:47:11.510Z,27.15
2022-08-22T09:48:11.485Z,27.07
2022-08-22T09:49:11.485Z,27.17
2022-08-22T09:50:11.462Z,27.21
2022-08-22T09:51:31.664Z,27.30
2022-08-22T09:52:15.646Z,27.30
2022-08-22T09:53:12.474Z,27.35
2022-08-22T09:54:11.407Z,27.49
2022-08-22T09:55:15.875Z,27.58
2022-08-22T09:56:15.338Z,27.54
2022-08-22T09:57:14.028Z,27.52
2022-08-22T09:58:11.606Z,27.54
2022-08-22T09:59:11.347Z,27.63
2022-08-22T10:00:11.353Z,27.74
2022-08-22T10:01:14.364Z,27.77
2022-08-22T10:02:15.709Z,27.86
2022-08-22T10:03:11.308Z,27.89
2022-08-22T10:04:11.299Z,28.01
2022-08-22T10:05:11.309Z,28.12
2022-08-22T10:06:12.283Z,28.14
2022-08-22T10:07:12.202Z,28.12
2022-08-22T10:08:11.550Z,28.27
2022-08-22T10:09:11.253Z,28.25
2022-08-22T10:10:11.375Z,28.23
2022-08-22T10:11:11.262Z,28.22
2022-08-22T10:12:12.260Z,28.22
2022-08-22T10:13:11.203Z,28.26
2022-08-22T10:14:11.192Z,28.00
2022-08-22T10:15:12.183Z,27.93
2022-08-22T10:16:14.197Z,27.93
2022-08-22T10:17:11.218Z,28.02
2022-08-22T10:18:11.154Z,28.08
2022-08-22T10:19:11.154Z,28.14
2022-08-22T10:20:11.144Z,28.15
2022-08-22T10:21:11.116Z,28.14
2022-08-22T10:22:11.124Z,28.02
2022-08-22T10:23:11.322Z,27.98
2022-08-22T10:24:11.089Z,27.77
2022-08-22T10:25:12.076Z,27.78
2022-08-22T10:26:11.068Z,27.90
2022-08-22T10:27:11.068Z,27.95
2022-08-22T10:28:11.148Z,28.00
2022-08-22T10:29:11.057Z,27.92
2022-08-22T10:30:11.028Z,27.95
2022-08-22T10:31:14.010Z,27.95
2022-08-22T10:32:14.604Z,27.96
2022-08-22T10:33:12.188Z,27.86
2022-08-22T10:34:10.981Z,27.77
2022-08-22T10:35:10.973Z,27.71
2022-08-22T10:36:12.026Z,27.74
2022-08-22T10:37:10.952Z,27.82
2022-08-22T10:38:10.956Z,27.86
2022-08-22T10:39:11.894Z,27.40
2022-08-22T10:40:11.059Z,26.99
2022-08-22T10:41:10.914Z,26.84
2022-08-22T10:42:10.897Z,26.53
2022-08-22T10:43:10.902Z,26.65
2022-08-22T10:44:11.002Z,26.95
2022-08-22T10:45:10.878Z,26.84
2022-08-22T10:46:14.909Z,26.90
2022-08-22T10:47:10.866Z,27.14
2022-08-22T10:48:10.837Z,27.21
2022-08-22T10:49:11.574Z,27.30
2022-08-22T10:50:11.528Z,27.36
2022-08-22T10:51:10.810Z,27.35
2022-08-22T10:52:15.840Z,27.47
2022-08-22T10:53:10.786Z,27.64
2022-08-22T10:54:10.780Z,27.74
2022-08-22T10:55:10.777Z,27.83
2022-08-22T10:56:10.757Z,27.92
2022-08-22T10:57:10.762Z,27.90
2022-08-22T10:58:10.771Z,27.96
2022-08-22T10:59:10.723Z,28.14
2022-08-22T11:00:10.715Z,28.30
2022-08-22T11:01:37.845Z,28.39
2022-08-22T11:02:11.716Z,28.44
2022-08-22T11:03:14.131Z,28.39
2022-08-22T11:04:12.286Z,28.32
2022-08-22T11:05:10.667Z,28.23
2022-08-22T11:06:12.782Z,28.39
2022-08-22T11:07:10.634Z,28.54
2022-08-22T11:08:10.634Z,28.62
2022-08-22T11:09:10.666Z,28.76
2022-08-22T11:10:10.610Z,28.81
2022-08-22T11:11:10.622Z,28.81
2022-08-22T11:12:10.599Z,28.78
2022-08-22T11:13:10.583Z,28.84
2022-08-22T11:14:10.570Z,28.94
2022-08-22T11:15:10.989Z,28.85
2022-08-22T11:16:13.554Z,28.74
2022-08-22T11:17:28.799Z,28.72
2022-08-22T11:18:12.996Z,28.66
2022-08-22T11:19:15.397Z,28.66
2022-08-22T11:20:10.510Z,28.57
2022-08-22T11:21:10.497Z,28.23
2022-08-22T11:22:10.482Z,28.22
2022-08-22T11:23:12.511Z,28.27
2022-08-22T11:24:17.180Z,28.30
2022-08-22T11:25:11.469Z,28.27
2022-08-22T11:26:11.455Z,28.25
2022-08-22T11:27:12.987Z,28.42
2022-08-22T11:28:10.474Z,28.52
2022-08-22T11:29:13.825Z,28.67
2022-08-22T11:30:10.408Z,28.37
2022-08-22T11:31:13.406Z,28.42
2022-08-22T11:32:10.403Z,28.41
2022-08-22T11:33:10.365Z,28.11
2022-08-22T11:34:10.367Z,28.23
2022-08-22T11:35:10.390Z,28.39
2022-08-22T11:36:10.338Z,28.44
2022-08-22T11:37:11.493Z,28.38
2022-08-22T11:38:11.103Z,28.32
2022-08-22T11:39:18.347Z,28.15
2022-08-22T11:40:11.681Z,28.23
2022-08-22T11:41:10.288Z,28.32
2022-08-22T11:42:10.280Z,28.41
2022-08-22T11:43:11.987Z,28.35
2022-08-22T11:44:10.254Z,27.83
2022-08-22T11:45:11.646Z,27.54
2022-08-22T11:46:13.234Z,27.21
2022-08-22T11:47:10.254Z,27.08
2022-08-22T11:48:10.209Z,27.37
2022-08-22T11:49:10.228Z,27.58
2022-08-22T11:50:13.716Z,27.65
2022-08-22T11:51:13.257Z,27.80
2022-08-22T11:52:10.175Z,27.95
2022-08-22T11:53:10.172Z,28.04
2022-08-22T11:54:10.177Z,28.08
2022-08-22T11:55:10.146Z,28.19
2022-08-22T11:56:10.451Z,28.35
2022-08-22T11:57:10.128Z,28.60
2022-08-22T11:58:10.118Z,28.81
2022-08-22T11:59:10.188Z,28.94
2022-08-22T12:00:10.086Z,28.94
2022-08-22T12:01:17.269Z,28.93
2022-08-22T12:02:10.130Z,28.75
2022-08-22T12:03:10.060Z,28.70
2022-08-22T12:04:10.186Z,28.67
2022-08-22T12:05:10.039Z,28.74
2022-08-22T12:06:10.029Z,28.66
2022-08-22T12:07:10.033Z,28.62
2022-08-22T12:08:11.258Z,28.69
2022-08-22T12:09:09.995Z,28.66
2022-08-22T12:10:13.789Z,28.62
2022-08-22T12:11:09.983Z,28.44
2022-08-22T12:12:09.963Z,28.47
2022-08-22T12:13:09.969Z,28.48
2022-08-22T12:14:09.943Z,28.48
2022-08-22T12:15:09.959Z,28.57
2022-08-22T12:16:12.935Z,28.52
2022-08-22T12:17:09.925Z,28.49
2022-08-22T12:18:10.897Z,28.38
2022-08-22T12:19:09.887Z,28.35
2022-08-22T12:20:17.047Z,28.39
2022-08-22T12:21:09.909Z,28.30
2022-08-22T12:22:09.867Z,28.33
2022-08-22T12:23:09.848Z,28.45
2022-08-22T12:24:11.328Z,28.56
2022-08-22T12:25:09.819Z,28.64
2022-08-22T12:26:10.941Z,28.59
2022-08-22T12:27:09.815Z,28.52
2022-08-22T12:28:09.820Z,28.60
2022-08-22T12:29:15.641Z,28.62
2022-08-22T12:30:13.772Z,28.74
2022-08-22T12:31:12.767Z,28.76
2022-08-22T12:32:10.170Z,28.85
2022-08-22T12:33:09.770Z,28.81
2022-08-22T12:34:09.763Z,28.74
2022-08-22T12:35:13.810Z,28.62
2022-08-22T12:36:17.776Z,28.59
2022-08-22T12:37:09.703Z,28.66
2022-08-22T12:38:28.149Z,28.74
2022-08-22T12:39:10.725Z,28.85
2022-08-22T12:40:09.712Z,28.85
2022-08-22T12:41:09.665Z,28.82
2022-08-22T12:42:10.658Z,28.89
2022-08-22T12:43:09.637Z,28.97
2022-08-22T12:44:12.567Z,29.01
2022-08-22T12:45:09.638Z,29.10
2022-08-22T12:46:13.024Z,29.14
2022-08-22T12:47:09.619Z,29.12
2022-08-22T12:48:09.597Z,29.13
2022-08-22T12:49:09.594Z,29.08
2022-08-22T12:50:09.573Z,28.93
2022-08-22T12:51:17.211Z,28.86
2022-08-22T12:52:09.551Z,28.79
2022-08-22T12:53:09.558Z,28.78
2022-08-22T12:54:09.531Z,28.69
2022-08-22T12:56:10.213Z,28.56
2022-08-22T12:57:10.549Z,28.72
2022-08-22T12:58:09.495Z,28.82
2022-08-22T12:59:09.500Z,28.79
2022-08-22T13:00:09.490Z,28.88
2022-08-22T13:01:12.538Z,28.94
2022-08-22T13:02:09.468Z,29.02
2022-08-22T13:03:09.614Z,29.08
2022-08-22T13:04:09.437Z,29.04
2022-08-22T13:05:10.437Z,29.01
2022-08-22T13:06:13.768Z,29.02
2022-08-22T13:07:09.389Z,29.13
2022-08-22T13:08:09.627Z,29.22
2022-08-22T13:09:09.958Z,29.27
2022-08-22T13:10:09.363Z,29.31
2022-08-22T13:11:09.944Z,29.39
2022-08-22T13:12:09.343Z,29.42
2022-08-22T13:13:12.245Z,29.35
2022-08-22T13:14:18.212Z,29.24
2022-08-22T13:15:10.911Z,29.26
2022-08-22T13:16:12.311Z,29.24
2022-08-22T13:17:10.703Z,29.20
2022-08-22T13:18:28.669Z,29.29
2022-08-22T13:19:13.785Z,29.32
2022-08-22T13:20:09.298Z,29.31
2022-08-22T13:21:13.974Z,29.35
2022-08-22T13:22:09.251Z,29.35
2022-08-22T13:23:12.439Z,29.35
2022-08-22T13:24:10.515Z,29.38
2022-08-22T13:25:09.236Z,29.32
2022-08-22T13:26:09.208Z,29.32
2022-08-22T13:27:10.205Z,29.39
2022-08-22T13:28:09.188Z,29.44
2022-08-22T13:29:25.651Z,29.44
2022-08-22T13:30:12.475Z,29.39
2022-08-22T13:31:12.178Z,29.29
2022-08-22T13:32:09.160Z,29.26
2022-08-22T13:33:09.129Z,29.20
2022-08-22T13:34:09.131Z,29.16
2022-08-22T13:35:09.141Z,29.16
2022-08-22T13:36:10.954Z,29.13
2022-08-22T13:37:10.097Z,29.14
2022-08-22T13:38:12.125Z,29.13
2022-08-22T13:39:09.073Z,29.13
2022-08-22T13:40:09.295Z,29.19
2022-08-22T13:41:09.054Z,29.04
2022-08-22T13:42:14.538Z,29.07
2022-08-22T13:43:09.064Z,29.14
2022-08-22T13:44:09.031Z,29.22
2022-08-22T13:45:09.067Z,29.24
2022-08-22T13:46:12.013Z,29.34
2022-08-22T13:47:14.690Z,29.39
2022-08-22T13:48:09.068Z,29.44
2022-08-22T13:49:08.988Z,29.45
2022-08-22T13:50:09.120Z,29.50
2022-08-22T13:51:08.964Z,29.54
2022-08-22T13:52:14.508Z,29.57
2022-08-22T13:53:09.949Z,29.60
2022-08-22T13:54:11.077Z,29.60
2022-08-22T13:55:12.628Z,29.63
2022-08-22T13:56:15.978Z,29.59
2022-08-22T13:57:08.903Z,29.53
2022-08-22T13:58:11.338Z,29.34
2022-08-22T13:59:09.688Z,29.22
2022-08-22T14:00:10.030Z,29.23
2022-08-22T14:01:12.927Z,29.23
2022-08-22T14:02:15.146Z,29.35
2022-08-22T14:03:09.645Z,29.41
2022-08-22T14:04:28.502Z,29.45
2022-08-22T14:05:09.814Z,29.44
2022-08-22T14:06:35.367Z,29.47
2022-08-22T14:07:09.855Z,29.24
2022-08-22T14:08:12.463Z,29.23
2022-08-22T14:09:08.788Z,29.26
2022-08-22T14:10:15.271Z,29.32
2022-08-22T14:11:08.765Z,29.36
2022-08-22T14:12:12.203Z,29.41
2022-08-22T14:13:08.745Z,29.51
2022-08-22T14:14:08.739Z,29.59
2022-08-22T14:15:08.717Z,29.72
2022-08-22T14:16:11.708Z,29.82
2022-08-22T14:17:08.711Z,29.94
2022-08-22T14:18:08.722Z,29.93
2022-08-22T14:19:08.684Z,29.95
2022-08-22T14:20:11.101Z,29.95
2022-08-22T14:21:09.664Z,29.93
2022-08-22T14:22:08.652Z,29.81
2022-08-22T14:23:08.845Z,29.76
2022-08-22T14:24:08.630Z,29.66
2022-08-22T14:25:08.640Z,29.69
2022-08-22T14:26:08.613Z,29.68
2022-08-22T14:27:08.594Z,29.73
2022-08-22T14:28:09.383Z,29.75
2022-08-22T14:29:08.594Z,29.75
2022-08-22T14:30:08.575Z,29.73
2022-08-22T14:31:13.716Z,29.65
2022-08-22T14:32:08.756Z,29.61
2022-08-22T14:33:08.555Z,29.60
2022-08-22T14:34:08.683Z,29.60
2022-08-22T14:35:10.756Z,29.60
2022-08-22T14:36:08.526Z,29.51
2022-08-22T14:37:08.513Z,29.56
2022-08-22T14:38:17.097Z,29.57
2022-08-22T14:39:08.487Z,29.49
2022-08-22T14:40:08.551Z,29.41
2022-08-22T14:41:08.496Z,29.38
2022-08-22T14:42:09.968Z,29.35
2022-08-22T14:43:08.471Z,29.35
2022-08-22T14:44:08.433Z,29.42
2022-08-22T14:45:08.430Z,29.34
2022-08-22T14:46:11.433Z,28.98
2022-08-22T14:47:32.625Z,28.51
2022-08-22T14:48:14.535Z,28.41
2022-08-22T14:49:10.707Z,28.48
2022-08-22T14:50:08.374Z,28.60
2022-08-22T14:51:08.619Z,28.76
2022-08-22T14:52:08.857Z,28.91
2022-08-22T14:53:09.616Z,28.93
2022-08-22T14:54:08.336Z,28.96
2022-08-22T14:55:08.856Z,28.98
2022-08-22T14:56:08.315Z,28.97
2022-08-22T14:57:10.271Z,29.08
2022-08-22T14:58:08.314Z,29.14
2022-08-22T14:59:08.278Z,29.20
2022-08-22T15:00:08.279Z,29.31
2022-08-22T15:01:11.261Z,29.31
2022-08-22T15:02:08.345Z,29.41
2022-08-22T15:03:08.269Z,29.39
2022-08-22T15:04:08.240Z,29.44
2022-08-22T15:05:09.230Z,29.39
2022-08-22T15:06:08.210Z,29.38
2022-08-22T15:07:08.266Z,29.24
2022-08-22T15:08:08.191Z,29.04
2022-08-22T15:09:08.405Z,29.01
2022-08-22T15:10:08.171Z,29.01
2022-08-22T15:11:08.173Z,29.08
2022-08-22T15:12:08.155Z,29.17
2022-08-22T15:13:08.177Z,29.23
2022-08-22T15:14:08.125Z,29.34
2022-08-22T15:15:09.311Z,29.39
2022-08-22T15:16:11.106Z,29.41
2022-08-22T15:17:08.121Z,29.45
2022-08-22T15:18:08.127Z,29.42
2022-08-22T15:19:08.087Z,29.31
2022-08-22T15:20:08.068Z,29.24
2022-08-22T15:21:08.739Z,29.20
2022-08-22T15:22:08.049Z,29.22
2022-08-22T15:23:09.808Z,29.24
2022-08-22T15:24:08.030Z,29.26